Time;durP1;ratioP1;P1;durP2;ratioP2;P2;SDS_P1;SDS_P2;PMS_P1;PMS_P2;Temp;Humidity;BMP_temperature;BMP_pressure;BME280_temperature;BME280_humidity;BME280_pressure;Samples;Min_cycle;Max_cycle;Signal;HPM_P1;HPM_P2
2024/01/03 00:01:42;;;;;;;12.32;2.45;;;;;;;9.98;100.00;98309.34;5074627;28;20123;-47
2024/01/03 00:04:16;;;;;;;14.95;2.10;;;;;;;9.98;100.00;98353.97;5070579;28;20056;-46
2024/01/03 00:06:44;;;;;;;12.32;2.30;;;;;;;10.01;100.00;98326.56;5071444;28;20476;-49
2024/01/03 00:09:13;;;;;;;14.43;2.22;;;;;;;10.04;100.00;98349.88;5071664;28;20384;-47
2024/01/03 00:11:42;;;;;;;14.75;2.35;;;;;;;10.05;100.00;98348.06;5071622;28;20052;-46
2024/01/03 00:14:24;;;;;;;13.82;2.13;;;;;;;10.03;100.00;98342.97;5071757;28;20052;-49
2024/01/03 00:16:52;;;;;;;12.02;1.85;;;;;;;10.02;100.00;98353.66;5071878;28;20052;-47
2024/01/03 00:19:22;;;;;;;14.00;2.15;;;;;;;10.00;100.00;98347.75;5071683;28;20052;-48
2024/01/03 00:21:50;;;;;;;11.07;2.30;;;;;;;10.05;100.00;98350.69;5071333;28;20487;-48
2024/01/03 00:24:19;;;;;;;11.95;2.40;;;;;;;10.06;100.00;98362.84;5070682;28;20067;-46
2024/01/03 00:26:48;;;;;;;15.32;2.00;;;;;;;10.06;100.00;98361.06;5070870;28;20043;-50
2024/01/03 00:29:49;;;;;;;14.50;2.08;;;;;;;10.05;100.00;98361.19;5071917;28;20084;-46
2024/01/03 00:32:19;;;;;;;13.30;2.05;;;;;;;10.02;100.00;98345.78;5067775;28;20132;-47
2024/01/03 00:34:52;;;;;;;16.77;2.63;;;;;;;9.99;100.00;98367.91;5072762;28;20051;-47
2024/01/03 00:37:28;;;;;;;10.25;1.90;;;;;;;9.98;100.00;98355.78;5074869;28;20418;-45
2024/01/03 00:39:58;;;;;;;13.88;2.58;;;;;;;9.98;100.00;98372.34;5072756;28;20068;-46
2024/01/03 00:42:26;;;;;;;11.07;2.55;;;;;;;10.03;100.00;98371.06;5074658;28;20055;-46
2024/01/03 00:44:56;;;;;;;12.65;2.25;;;;;;;9.97;100.00;98381.19;5070737;28;20059;-49
2024/01/03 00:47:25;;;;;;;14.73;2.63;;;;;;;9.99;100.00;98378.41;5074544;28;20048;-49
2024/01/03 00:49:56;;;;;;;13.35;2.20;;;;;;;9.94;100.00;98389.38;5074563;28;20172;-48
2024/01/03 00:52:25;;;;;;;12.05;2.47;;;;;;;9.99;100.00;98394.16;5071548;28;20522;-49
2024/01/03 00:54:53;;;;;;;12.32;2.22;;;;;;;9.98;100.00;98393.34;5070969;28;20056;-46
2024/01/03 00:57:23;;;;;;;13.65;2.53;;;;;;;10.00;100.00;98401.06;5071974;28;20044;-48
2024/01/03 00:59:51;;;;;;;19.25;4.07;;;;;;;10.00;100.00;98393.19;5074340;28;20574;-48
2024/01/03 01:02:23;;;;;;;15.65;3.35;;;;;;;9.97;100.00;98412.72;5074205;28;20116;-49
2024/01/03 01:04:51;;;;;;;18.02;3.28;;;;;;;9.94;100.00;98413.03;5074616;28;20102;-46
2024/01/03 01:07:20;;;;;;;16.40;3.10;;;;;;;9.93;100.00;98429.75;5073154;28;20044;-49
2024/01/03 01:09:48;;;;;;;20.13;4.50;;;;;;;9.93;100.00;98410.56;5074285;28;20110;-49
2024/01/03 01:12:16;;;;;;;12.60;2.92;;;;;;;9.92;100.00;98435.16;5072309;28;20041;-46
2024/01/03 01:14:44;;;;;;;15.68;2.85;;;;;;;9.89;100.00;98431.03;5071911;28;20060;-46
2024/01/03 01:17:12;;;;;;;12.55;2.28;;;;;;;9.88;100.00;98418.88;5071577;28;20436;-46
2024/01/03 01:19:42;;;;;;;15.00;2.92;;;;;;;9.89;100.00;98425.78;5074036;28;20488;-46
2024/01/03 01:22:10;;;;;;;15.38;2.30;;;;;;;9.91;100.00;98415.97;5073972;28;20131;-48
2024/01/03 01:24:40;;;;;;;14.48;2.50;;;;;;;9.89;100.00;98438.91;5074553;28;20053;-47
2024/01/03 01:27:08;;;;;;;19.98;2.78;;;;;;;9.89;100.00;98441.53;5074632;28;20051;-47
2024/01/03 01:29:36;;;;;;;18.10;2.50;;;;;;;9.90;100.00;98434.50;5073857;28;20131;-46
2024/01/03 01:32:05;;;;;;;11.90;2.00;;;;;;;9.94;100.00;98457.66;5074246;28;20044;-46
2024/01/03 01:34:33;;;;;;;14.80;2.40;;;;;;;9.96;100.00;98439.13;5074378;28;20059;-46
2024/01/03 01:37:03;;;;;;;15.00;2.25;;;;;;;9.94;100.00;98454.22;5074573;28;20535;-45
2024/01/03 01:39:31;;;;;;;17.30;2.50;;;;;;;9.91;100.00;98457.13;5073202;28;20050;-47
2024/01/03 01:41:59;;;;;;;14.43;2.17;;;;;;;9.91;100.00;98451.88;5074545;28;20040;-47
2024/01/03 01:44:27;;;;;;;18.17;3.55;;;;;;;9.92;100.00;98483.22;5072839;28;20048;-45
2024/01/03 01:46:56;;;;;;;15.82;2.75;;;;;;;9.90;100.00;98484.38;5073119;28;20051;-46
2024/01/03 01:49:27;;;;;;;14.95;2.58;;;;;;;9.90;100.00;98479.94;5073165;28;20384;-46
2024/01/03 01:51:56;;;;;;;15.07;2.92;;;;;;;9.90;100.00;98481.75;5071247;28;20127;-46
2024/01/03 01:54:26;;;;;;;14.18;2.92;;;;;;;9.91;100.00;98476.34;5073432;28;20037;-49
2024/01/03 01:56:55;;;;;;;17.83;2.60;;;;;;;9.94;100.00;98499.66;5073259;28;20056;-46
2024/01/03 01:59:23;;;;;;;15.82;2.47;;;;;;;9.96;100.00;98489.00;5073419;28;20090;-46
2024/01/03 02:01:52;;;;;;;16.90;2.97;;;;;;;9.92;100.00;98477.16;5073077;28;20119;-47
2024/01/03 02:04:20;;;;;;;16.15;3.30;;;;;;;9.90;100.00;98485.19;5072959;28;20044;-47
2024/01/03 02:06:48;;;;;;;17.48;2.75;;;;;;;9.94;100.00;98504.09;5072917;28;20075;-47
2024/01/03 02:09:16;;;;;;;18.88;2.95;;;;;;;9.88;100.00;98502.88;5072939;28;20043;-46
2024/01/03 02:11:47;;;;;;;15.52;2.67;;;;;;;9.92;100.00;98498.16;5072858;28;20039;-47
2024/01/03 02:14:16;;;;;;;19.30;3.25;;;;;;;9.90;100.00;98505.38;5072723;28;20048;-46
2024/01/03 02:16:44;;;;;;;22.80;3.25;;;;;;;9.90;100.00;98502.75;5072832;28;20076;-47
2024/01/03 02:19:13;;;;;;;19.40;3.30;;;;;;;9.91;100.00;98512.25;5069765;28;20045;-46
2024/01/03 02:21:43;;;;;;;15.13;2.53;;;;;;;9.88;100.00;98513.38;5069387;28;20073;-49
2024/01/03 02:24:11;;;;;;;27.48;4.45;;;;;;;9.87;100.00;98530.16;5071580;28;20395;-49
2024/01/03 02:26:39;;;;;;;20.17;3.38;;;;;;;9.85;100.00;98487.44;5072941;28;20072;-48
2024/01/03 02:29:07;;;;;;;19.35;3.03;;;;;;;9.86;100.00;98531.13;5072688;28;20050;-46
2024/01/03 02:31:35;;;;;;;17.23;3.28;;;;;;;9.88;100.00;98520.47;5067294;28;20032;-48
2024/01/03 02:34:03;;;;;;;23.25;4.60;;;;;;;9.84;100.00;98519.91;5068991;28;20056;-50
2024/01/03 02:36:32;;;;;;;17.33;2.83;;;;;;;9.84;100.00;98529.59;5071944;28;20094;-47
2024/01/03 02:39:02;;;;;;;19.25;3.22;;;;;;;9.85;100.00;98539.16;5070032;28;20432;-49
2024/01/03 02:41:30;;;;;;;20.55;3.65;;;;;;;9.84;100.00;98548.81;5071197;28;20390;-49
2024/01/03 02:43:58;;;;;;;15.95;3.28;;;;;;;9.83;100.00;98549.81;5071079;28;20136;-47
2024/01/03 02:46:26;;;;;;;20.67;3.55;;;;;;;9.81;100.00;98552.56;5072643;28;20459;-50
2024/01/03 02:48:54;;;;;;;16.48;3.00;;;;;;;9.80;100.00;98553.56;5072524;28;20116;-49
2024/01/03 02:51:24;;;;;;;22.40;2.80;;;;;;;9.80;100.00;98556.19;5071533;28;20037;-46
2024/01/03 02:53:52;;;;;;;20.65;3.88;;;;;;;9.77;100.00;98545.94;5071872;28;20102;-47
2024/01/03 02:56:22;;;;;;;21.42;3.42;;;;;;;9.80;100.00;98563.22;5071915;28;20115;-46
2024/01/03 02:58:50;;;;;;;18.70;3.35;;;;;;;9.82;100.00;98550.78;5071711;28;20127;-45
2024/01/03 03:01:18;;;;;;;21.80;3.78;;;;;;;9.77;100.00;98538.06;5071879;28;20515;-44
2024/01/03 03:03:46;;;;;;;18.75;3.55;;;;;;;9.78;100.00;98542.34;5072078;28;20047;-46
2024/01/03 03:06:16;;;;;;;16.90;2.97;;;;;;;9.79;100.00;98557.16;5071844;28;20055;-47
2024/01/03 03:08:44;;;;;;;16.83;2.78;;;;;;;9.77;100.00;98555.63;5071849;28;20041;-48
2024/01/03 03:11:12;;;;;;;16.50;2.55;;;;;;;9.79;100.00;98561.56;5071495;28;20079;-48
2024/01/03 03:13:42;;;;;;;19.55;3.33;;;;;;;9.76;100.00;98578.44;5071237;28;20048;-46
2024/01/03 03:16:10;;;;;;;20.88;3.40;;;;;;;9.76;100.00;98580.22;5071332;28;20052;-48
2024/01/03 03:18:38;;;;;;;15.43;3.03;;;;;;;9.76;100.00;98572.34;5065688;28;20056;-45
2024/01/03 03:21:07;;;;;;;15.27;2.58;;;;;;;9.73;100.00;98580.53;5067303;28;20072;-48
2024/01/03 03:23:38;;;;;;;19.45;3.45;;;;;;;9.72;100.00;98581.50;5071585;28;20041;-47
2024/01/03 03:26:06;;;;;;;17.80;3.28;;;;;;;9.72;100.00;98579.72;5068367;28;20064;-46
2024/01/03 03:28:34;;;;;;;23.17;3.38;;;;;;;9.72;100.00;98582.34;5071652;28;20041;-45
2024/01/03 03:31:04;;;;;;;18.05;3.20;;;;;;;9.72;100.00;98576.25;5071179;28;20040;-45
2024/01/03 03:33:33;;;;;;;24.55;4.03;;;;;;;9.68;100.00;98595.91;5071539;28;20154;-50
2024/01/03 03:36:02;;;;;;;22.38;3.58;;;;;;;9.60;100.00;98586.97;5070330;28;20041;-47
2024/01/03 03:38:30;;;;;;;20.50;3.38;;;;;;;9.53;100.00;98588.56;5070102;28;20056;-48
2024/01/03 03:40:58;;;;;;;20.00;3.50;;;;;;;9.45;100.00;98585.84;5071381;28;20127;-49
2024/01/03 03:43:26;;;;;;;19.35;3.70;;;;;;;9.46;100.00;98587.47;5071140;28;20500;-49
2024/01/03 03:45:54;;;;;;;19.98;2.80;;;;;;;9.45;100.00;98593.72;5071136;28;20036;-49
2024/01/03 03:48:24;;;;;;;16.50;3.03;;;;;;;9.46;100.00;98597.97;5071315;28;20044;-49
2024/01/03 03:50:52;;;;;;;20.00;3.00;;;;;;;9.47;100.00;98589.13;5070896;28;20496;-47
2024/01/03 03:53:20;;;;;;;23.90;3.42;;;;;;;9.46;100.00;98593.56;5071314;28;20036;-47
2024/01/03 03:55:48;;;;;;;23.98;3.22;;;;;;;9.48;100.00;98598.66;5070863;28;20043;-45
2024/01/03 03:58:17;;;;;;;19.83;3.15;;;;;;;9.49;100.00;98602.94;5070997;28;20044;-46
2024/01/03 04:00:45;;;;;;;23.75;3.67;;;;;;;9.49;100.00;98608.19;5071159;28;20567;-47
2024/01/03 04:03:13;;;;;;;16.85;3.25;;;;;;;9.46;100.00;98598.81;5070467;28;20495;-47
2024/01/03 04:05:43;;;;;;;22.05;3.20;;;;;;;9.47;100.00;98603.09;5069244;28;20046;-49
2024/01/03 04:08:11;;;;;;;20.60;4.35;;;;;;;9.48;100.00;98601.28;5067688;28;20809;-45
2024/01/03 04:10:40;;;;;;;18.95;3.30;;;;;;;9.49;100.00;98595.06;5070691;28;20040;-49
2024/01/03 04:13:08;;;;;;;24.98;3.35;;;;;;;9.45;100.00;98594.53;5070321;28;20125;-50
2024/01/03 04:15:36;;;;;;;20.15;3.22;;;;;;;9.45;100.00;98601.59;5070962;28;20487;-46
2024/01/03 04:18:05;;;;;;;21.58;3.20;;;;;;;9.48;100.00;98601.28;5069053;28;20053;-48
2024/01/03 04:20:34;;;;;;;22.23;3.28;;;;;;;9.44;100.00;98610.44;5065392;28;20062;-47
2024/01/03 04:23:04;;;;;;;21.38;3.33;;;;;;;9.41;100.00;98615.97;5070159;28;20119;-52
2024/01/03 04:25:33;;;;;;;23.00;3.53;;;;;;;9.38;100.00;98624.97;5070886;28;20049;-52
2024/01/03 04:28:01;;;;;;;20.08;3.40;;;;;;;9.33;100.00;98619.31;5068991;28;20504;-51
2024/01/03 04:30:29;;;;;;;21.58;3.30;;;;;;;9.28;100.00;98625.03;5070819;28;20539;-49
2024/01/03 04:32:57;;;;;;;21.75;3.45;;;;;;;9.28;100.00;98611.91;5070430;28;20062;-46
2024/01/03 04:35:27;;;;;;;28.13;4.10;;;;;;;9.30;100.00;98636.19;5070496;28;20044;-47
2024/01/03 04:37:56;;;;;;;28.50;4.38;;;;;;;9.32;100.00;98622.09;5070933;28;20041;-49
2024/01/03 04:40:26;;;;;;;22.92;3.28;;;;;;;9.34;100.00;98625.38;5069447;28;20055;-47
2024/01/03 04:42:54;;;;;;;21.25;3.72;;;;;;;9.35;100.00;98627.84;5071194;28;20408;-48
2024/01/03 04:45:22;;;;;;;27.17;4.15;;;;;;;9.42;100.00;98626.31;5070476;28;20063;-48
2024/01/03 04:47:51;;;;;;;23.42;4.75;;;;;;;9.42;100.00;98631.56;5070424;28;20056;-46
2024/01/03 04:50:19;;;;;;;24.73;5.88;;;;;;;9.41;100.00;98636.97;5070507;28;20048;-50
2024/01/03 04:52:48;;;;;;;27.55;7.28;;;;;;;9.41;100.00;98645.66;5070077;28;20041;-48
2024/01/03 04:55:16;;;;;;;29.75;7.88;;;;;;;9.44;100.00;98642.72;5070399;28;20459;-46
2024/01/03 04:57:46;;;;;;;29.27;8.30;;;;;;;9.44;100.00;98640.09;5070648;28;20044;-45
2024/01/03 05:00:15;;;;;;;25.98;7.53;;;;;;;9.43;100.00;98637.63;5068371;28;20045;-45
2024/01/03 05:02:43;;;;;;;25.77;7.40;;;;;;;9.46;100.00;98640.78;5070494;28;20037;-47
2024/01/03 05:05:11;;;;;;;19.85;5.53;;;;;;;9.41;100.00;98627.28;5070127;28;20134;-47
2024/01/03 05:07:40;;;;;;;22.73;5.65;;;;;;;9.41;100.00;98643.03;5070638;28;20108;-47
2024/01/03 05:10:09;;;;;;;21.63;5.78;;;;;;;9.41;100.00;98642.22;5070749;28;20041;-47
2024/01/03 05:12:38;;;;;;;24.58;6.00;;;;;;;9.39;100.00;98641.50;5070308;28;20049;-48
2024/01/03 05:15:10;;;;;;;25.35;5.88;;;;;;;9.39;100.00;98647.56;5068465;28;20383;-47
2024/01/03 05:17:38;;;;;;;21.52;4.85;;;;;;;9.34;100.00;98649.00;5071133;28;20051;-47
2024/01/03 05:20:08;;;;;;;20.05;4.30;;;;;;;9.33;100.00;98652.59;5074503;28;20435;-48
2024/01/03 05:22:36;;;;;;;17.90;4.18;;;;;;;9.28;100.00;98651.25;5073905;28;20114;-46
2024/01/03 05:25:07;;;;;;;21.98;3.92;;;;;;;9.23;100.00;98655.25;5074116;28;20464;-46
2024/01/03 05:27:35;;;;;;;21.80;3.53;;;;;;;9.16;100.00;98649.75;5074112;28;20048;-47
2024/01/03 05:30:04;;;;;;;17.88;3.60;;;;;;;9.15;100.00;98648.13;5073946;28;20052;-47
2024/01/03 05:32:33;;;;;;;20.08;4.15;;;;;;;9.11;100.00;98652.81;5073846;28;20041;-48
2024/01/03 05:35:02;;;;;;;16.27;3.22;;;;;;;9.06;100.00;98651.59;5073585;28;20440;-48
2024/01/03 05:37:30;;;;;;;17.33;3.80;;;;;;;9.10;100.00;98655.59;5073609;28;20051;-48
2024/01/03 05:39:58;;;;;;;24.48;4.78;;;;;;;9.02;100.00;98660.72;5073659;28;20052;-48
2024/01/03 05:42:26;;;;;;;17.90;3.30;;;;;;;9.00;100.00;98641.69;5073389;28;20044;-47
2024/01/03 05:44:54;;;;;;;14.52;3.22;;;;;;;8.94;100.00;98661.44;5072083;28;20420;-47
2024/01/03 05:47:23;;;;;;;15.85;3.70;;;;;;;8.89;100.00;98672.34;5073697;28;20409;-47
2024/01/03 05:49:52;;;;;;;17.33;3.85;;;;;;;8.83;100.00;98666.84;5073299;28;20032;-48
2024/01/03 05:52:20;;;;;;;18.67;4.03;;;;;;;8.77;100.00;98666.44;5070771;28;20605;-48
2024/01/03 05:54:49;;;;;;;15.45;3.92;;;;;;;8.77;100.00;98655.97;5073329;28;20036;-49
2024/01/03 05:57:17;;;;;;;19.60;3.80;;;;;;;8.77;100.00;98666.44;5073498;28;20132;-50
2024/01/03 05:59:45;;;;;;;18.52;3.50;;;;;;;8.79;100.00;98656.66;5070806;28;20166;-47
2024/01/03 06:02:14;;;;;;;16.45;4.10;;;;;;;8.79;100.00;98654.03;5073318;28;20032;-50
2024/01/03 06:04:43;;;;;;;20.35;3.92;;;;;;;8.77;100.00;98657.75;5073209;28;20152;-51
2024/01/03 06:07:13;;;;;;;18.88;2.97;;;;;;;8.77;100.00;98668.25;5071297;28;20041;-48
2024/01/03 06:09:41;;;;;;;16.85;3.00;;;;;;;8.79;100.00;98666.28;5073238;28;20083;-49
2024/01/03 06:12:09;;;;;;;15.88;3.15;;;;;;;8.80;100.00;98667.97;5072846;28;20048;-47
2024/01/03 06:14:42;;;;;;;14.57;3.25;;;;;;;8.80;100.00;98670.56;5072823;28;20460;-47
2024/01/03 06:17:10;;;;;;;15.13;2.70;;;;;;;8.82;100.00;98667.81;5071419;28;20040;-49
2024/01/03 06:19:38;;;;;;;16.45;3.47;;;;;;;8.84;100.00;98676.38;5072762;28;20052;-46
2024/01/03 06:22:06;;;;;;;14.68;3.38;;;;;;;8.80;100.00;98676.63;5072331;28;20106;-46
2024/01/03 06:24:36;;;;;;;9.82;2.40;;;;;;;8.80;100.00;98673.19;5072889;28;20127;-49
2024/01/03 06:27:05;;;;;;;11.85;2.53;;;;;;;8.79;100.00;98675.00;5072073;28;20047;-58
2024/01/03 06:29:33;;;;;;;9.90;2.85;;;;;;;8.80;100.00;98668.78;5066683;28;20053;-58
2024/01/03 06:32:05;;;;;;;11.02;2.33;;;;;;;8.82;100.00;98675.69;5067861;28;20115;-59
2024/01/03 06:34:33;;;;;;;15.43;2.67;;;;;;;8.80;100.00;98670.56;5072160;28;20491;-58
2024/01/03 06:37:01;;;;;;;10.48;2.50;;;;;;;8.80;100.00;98678.44;5071438;28;20048;-57
2024/01/03 06:39:29;;;;;;;8.65;2.00;;;;;;;8.83;100.00;98675.53;5068884;28;20040;-58
2024/01/03 06:41:59;;;;;;;9.43;2.03;;;;;;;8.82;100.00;98683.53;5068161;28;20076;-58
2024/01/03 06:44:27;;;;;;;10.40;2.15;;;;;;;8.81;100.00;98685.34;5068057;28;20301;-58
2024/01/03 06:46:56;;;;;;;6.75;1.70;;;;;;;8.83;100.00;98686.00;5072323;28;20044;-59
2024/01/03 06:49:24;;;;;;;8.45;1.83;;;;;;;8.80;100.00;98687.13;5072452;28;20052;-58
2024/01/03 06:51:52;;;;;;;5.75;1.58;;;;;;;8.79;100.00;98690.72;5069387;28;20052;-59
2024/01/03 06:54:21;;;;;;;9.27;1.75;;;;;;;8.79;100.00;98689.88;5072146;28;20376;-58
2024/01/03 06:56:50;;;;;;;8.18;1.80;;;;;;;8.77;100.00;98697.06;5071518;28;20037;-59
2024/01/03 06:59:19;;;;;;;9.07;1.50;;;;;;;8.77;100.00;98697.06;5069611;28;20040;-58
2024/01/03 07:01:48;;;;;;;14.10;2.25;;;;;;;8.76;100.00;98695.41;5071852;28;20387;-58
2024/01/03 07:04:16;;;;;;;8.80;1.35;;;;;;;8.79;100.00;98692.50;5071389;28;20040;-58
2024/01/03 07:06:44;;;;;;;8.15;1.42;;;;;;;8.78;100.00;98699.56;5071588;28;20083;-58
2024/01/03 07:09:12;;;;;;;6.43;1.65;;;;;;;8.74;100.00;98703.44;5072131;28;20041;-58
2024/01/03 07:11:41;;;;;;;9.05;1.50;;;;;;;8.72;100.00;98699.28;5072612;28;20561;-58
2024/01/03 07:14:12;;;;;;;5.20;1.00;;;;;;;8.74;100.00;98707.81;5072584;28;20045;-57
2024/01/03 07:16:41;;;;;;;5.35;0.82;;;;;;;8.65;100.00;98704.25;5072001;28;20044;-58
2024/01/03 07:19:10;;;;;;;4.20;0.90;;;;;;;8.62;100.00;98705.34;5072097;28;20052;-56
2024/01/03 07:21:38;;;;;;;2.30;0.68;;;;;;;8.59;100.00;98713.50;5072149;28;20048;-58
2024/01/03 07:24:06;;;;;;;2.15;0.70;;;;;;;8.57;100.00;98722.47;5072056;28;20052;-58
2024/01/03 07:26:35;;;;;;;3.17;0.95;;;;;;;8.52;100.00;98730.75;5070203;28;20400;-58
2024/01/03 07:29:03;;;;;;;4.57;0.80;;;;;;;8.51;100.00;98726.47;5071124;28;20091;-58
2024/01/03 07:31:31;;;;;;;2.05;0.60;;;;;;;8.46;100.00;98733.91;5072113;28;20044;-58
2024/01/03 07:34:00;;;;;;;2.95;0.70;;;;;;;8.38;100.00;98737.19;5072191;28;20033;-58
2024/01/03 07:36:29;;;;;;;4.97;0.90;;;;;;;8.29;100.00;98736.22;5068436;28;20064;-58
2024/01/03 07:38:58;;;;;;;3.53;0.60;;;;;;;8.26;100.00;98741.75;5067403;28;20048;-58
2024/01/03 07:41:27;;;;;;;3.15;0.63;;;;;;;8.22;100.00;98740.34;5072126;28;20052;-58
2024/01/03 07:43:59;;;;;;;1.92;0.60;;;;;;;8.18;100.00;98746.00;5071771;28;20059;-57
2024/01/03 07:46:28;;;;;;;3.25;0.60;;;;;;;8.13;100.00;98741.97;5070830;28;20101;-58
2024/01/03 07:48:56;;;;;;;1.80;0.45;;;;;;;8.09;100.00;98739.78;5071138;28;20041;-58
2024/01/03 07:51:26;;;;;;;2.28;0.70;;;;;;;8.10;100.00;98741.44;5068600;28;20527;-58
2024/01/03 07:53:54;;;;;;;2.03;0.50;;;;;;;8.04;100.00;98748.03;5070959;28;20044;-57
2024/01/03 07:56:22;;;;;;;2.13;0.70;;;;;;;8.01;100.00;98737.00;5071049;28;20047;-58
2024/01/03 07:58:51;;;;;;;3.15;0.80;;;;;;;8.00;100.00;98751.06;5071057;28;20441;-58
2024/01/03 08:01:21;;;;;;;2.15;0.82;;;;;;;7.96;100.00;98750.50;5071369;28;20094;-58
2024/01/03 08:03:50;;;;;;;4.40;0.60;;;;;;;7.98;100.00;98755.63;5051891;28;20146;-59
2024/01/03 08:06:21;;;;;;;3.05;0.68;;;;;;;7.93;100.00;98751.59;5061643;28;20037;-47
2024/01/03 08:08:51;;;;;;;2.15;0.40;;;;;;;7.97;100.00;98759.19;5070706;28;20043;-49
2024/01/03 08:11:19;;;;;;;1.85;0.50;;;;;;;7.99;100.00;98760.72;5069418;28;20040;-58
2024/01/03 08:13:47;;;;;;;4.57;0.70;;;;;;;8.03;100.00;98766.50;5068695;28;20055;-58
2024/01/03 08:16:16;;;;;;;1.38;0.52;;;;;;;8.01;100.00;98766.63;5066973;28;20075;-58
2024/01/03 08:18:46;;;;;;;3.28;0.60;;;;;;;7.99;100.00;98765.94;5071648;28;20049;-58
2024/01/03 08:21:15;;;;;;;2.80;0.68;;;;;;;8.01;100.00;98768.44;5073122;28;20442;-58
2024/01/03 08:23:45;;;;;;;5.00;0.88;;;;;;;7.99;100.00;98765.09;5071838;28;20043;-58
2024/01/03 08:26:15;;;;;;;3.60;0.80;;;;;;;7.97;100.00;98767.84;5071535;28;20131;-45
2024/01/03 08:28:45;;;;;;;4.07;0.90;;;;;;;7.99;100.00;98763.34;5076597;28;20047;-46
2024/01/03 08:31:14;;;;;;;4.50;1.30;;;;;;;8.00;100.00;98766.75;5085816;28;20052;-46
2024/01/03 08:33:43;;;;;;;5.03;1.08;;;;;;;8.04;100.00;98768.16;5086873;28;20044;-49
2024/01/03 08:36:16;;;;;;;7.18;1.38;;;;;;;8.01;100.00;98769.25;5091411;28;20502;-47
2024/01/03 08:38:44;;;;;;;4.32;1.08;;;;;;;8.03;100.00;98766.50;5091341;28;20059;-47
2024/01/03 08:41:15;;;;;;;7.15;1.83;;;;;;;8.06;100.00;98774.09;5091640;28;20069;-45
2024/01/03 08:43:46;;;;;;;7.47;1.60;;;;;;;8.06;100.00;98767.06;5091607;28;20059;-46
2024/01/03 08:46:14;;;;;;;9.40;1.60;;;;;;;8.10;100.00;98767.63;5091331;28;20055;-47
2024/01/03 08:48:42;;;;;;;10.50;1.83;;;;;;;8.11;100.00;98758.78;5079611;28;20067;-47
2024/01/03 08:51:13;;;;;;;7.97;2.17;;;;;;;8.11;100.00;98772.72;5070678;28;20040;-47
2024/01/03 08:53:42;;;;;;;10.88;2.47;;;;;;;8.11;100.00;98779.72;5073550;28;20480;-47
2024/01/03 08:56:16;;;;;;;7.57;1.80;;;;;;;8.10;100.00;98781.53;5074284;28;20110;-50
2024/01/03 08:58:46;;;;;;;6.18;1.85;;;;;;;8.09;100.00;98782.50;5072664;28;20052;-47
2024/01/03 09:01:17;;;;;;;9.18;2.30;;;;;;;8.09;100.00;98782.50;5073617;28;20049;-47
2024/01/03 09:03:46;;;;;;;7.57;2.00;;;;;;;8.10;100.00;98785.97;5074921;28;20044;-46
2024/01/03 09:06:17;;;;;;;6.80;1.95;;;;;;;8.10;100.00;98780.72;5074884;28;20044;-46
2024/01/03 09:08:50;;;;;;;9.02;2.72;;;;;;;8.13;100.00;98781.25;5074558;28;20048;-48
2024/01/03 09:11:25;;;;;;;7.72;2.22;;;;;;;8.17;100.00;98787.06;5074986;28;20539;-46
2024/01/03 09:13:56;;;;;;;6.72;2.25;;;;;;;8.16;100.00;98779.34;5074088;28;20054;-46
2024/01/03 09:16:26;;;;;;;8.48;2.60;;;;;;;8.17;100.00;98776.59;5074485;28;20043;-49
2024/01/03 09:18:55;;;;;;;10.20;3.30;;;;;;;8.18;100.00;98788.72;5074320;28;20438;-47
2024/01/03 09:21:27;;;;;;;9.50;3.15;;;;;;;8.22;100.00;98791.88;5074836;28;20055;-51
2024/01/03 09:23:55;;;;;;;8.48;3.30;;;;;;;8.23;100.00;98796.97;5073966;28;20105;-48
2024/01/03 09:26:26;;;;;;;11.98;4.10;;;;;;;8.23;100.00;98794.38;5072443;28;20064;-47
2024/01/03 09:28:54;;;;;;;11.32;3.40;;;;;;;8.22;100.00;98797.97;5074295;28;20575;-49
2024/01/03 09:31:23;;;;;;;10.20;4.03;;;;;;;8.27;100.00;98795.75;5074637;28;20483;-46
2024/01/03 09:33:51;;;;;;;13.15;3.50;;;;;;;8.26;100.00;98801.13;5074352;28;20110;-48
2024/01/03 09:36:20;;;;;;;17.23;4.13;;;;;;;8.28;100.00;98797.41;5074596;28;20472;-49
2024/01/03 09:38:54;;;;;;;14.65;3.95;;;;;;;8.28;100.00;98807.88;5074057;28;20149;-49
2024/01/03 09:41:25;;;;;;;12.43;3.53;;;;;;;8.28;100.00;98813.13;5074635;28;20047;-49
2024/01/03 09:43:55;;;;;;;11.07;3.10;;;;;;;8.28;100.00;98809.69;5073993;28;20059;-46
2024/01/03 09:46:24;;;;;;;18.25;3.58;;;;;;;8.29;100.00;98814.78;5073565;28;20510;-47
2024/01/03 09:48:52;;;;;;;10.65;3.20;;;;;;;8.26;100.00;98815.06;5073882;28;20055;-46
2024/01/03 09:51:21;;;;;;;12.88;3.33;;;;;;;8.27;100.00;98815.88;5074352;28;20844;-47
2024/01/03 09:53:53;;;;;;;10.55;3.15;;;;;;;8.26;100.00;98815.06;5073980;28;20483;-48
2024/01/03 09:56:22;;;;;;;10.07;3.30;;;;;;;8.29;100.00;98820.03;5074263;28;20503;-46
2024/01/03 09:58:51;;;;;;;11.20;3.28;;;;;;;8.27;100.00;98823.75;5073741;28;20484;-48
2024/01/03 10:01:20;;;;;;;14.55;3.53;;;;;;;8.28;100.00;98825.41;5072879;28;20044;-46
2024/01/03 10:03:49;;;;;;;9.73;2.90;;;;;;;8.29;100.00;98834.94;5073485;28;20057;-48
2024/01/03 10:06:17;;;;;;;10.80;2.95;;;;;;;8.30;100.00;98836.56;5072527;28;20139;-49
2024/01/03 10:08:58;;;;;;;11.70;3.20;;;;;;;8.33;100.00;98832.84;5073453;28;20044;-46
2024/01/03 10:11:28;;;;;;;14.43;3.03;;;;;;;8.29;100.00;98835.75;5074001;28;20045;-47
2024/01/03 10:14:15;;;;;;;15.82;3.60;;;;;;;8.29;100.00;98832.31;5073714;28;20052;-47
2024/01/03 10:16:44;;;;;;;12.52;3.30;;;;;;;8.28;100.00;98834.09;5073429;28;20040;-59
2024/01/03 10:19:14;;;;;;;16.08;3.42;;;;;;;8.28;100.00;98822.78;5079520;28;20040;-59
2024/01/03 10:21:50;;;;;;;13.43;2.67;;;;;;;8.36;100.00;98828.19;5073133;28;20056;-59
2024/01/03 10:24:20;;;;;;;16.38;3.15;;;;;;;8.37;100.00;98836.84;5072619;28;20399;-58
2024/01/03 10:26:48;;;;;;;16.88;3.20;;;;;;;8.39;100.00;98821.84;5072505;28;20505;-57
2024/01/03 10:29:19;;;;;;;18.00;4.45;;;;;;;8.41;100.00;98833.84;5072485;28;20127;-58
2024/01/03 10:31:49;;;;;;;23.60;3.50;;;;;;;8.47;100.00;98835.13;5070558;28;20133;-59
2024/01/03 10:34:23;;;;;;;27.13;3.75;;;;;;;8.50;100.00;98820.94;5070930;28;20423;-59
2024/01/03 10:36:55;;;;;;;18.63;3.40;;;;;;;8.58;100.00;98828.94;5070542;28;20040;-59
2024/01/03 10:39:25;;;;;;;17.65;3.95;;;;;;;8.62;100.00;98828.50;5068716;28;20114;-59
2024/01/03 10:41:54;;;;;;;19.38;3.67;;;;;;;8.63;100.00;98832.81;5070529;28;20068;-59
2024/01/03 10:44:24;;;;;;;17.17;3.55;;;;;;;8.70;100.00;98835.72;5071525;28;20040;-59
2024/01/03 10:46:54;;;;;;;18.38;3.25;;;;;;;8.76;100.00;98831.69;5071747;28;20059;-58
2024/01/03 10:49:23;;;;;;;19.20;3.75;;;;;;;8.79;100.00;98839.28;5069072;28;20053;-59
2024/01/03 10:52:00;;;;;;;18.02;4.18;;;;;;;8.85;100.00;98846.63;5070422;28;20539;-59
2024/01/03 10:54:30;;;;;;;14.73;3.88;;;;;;;8.82;100.00;98841.66;5071986;28;20117;-59
2024/01/03 10:56:58;;;;;;;22.42;3.80;;;;;;;8.87;100.00;98844.66;5069805;28;20037;-58
2024/01/03 10:59:34;;;;;;;22.55;3.63;;;;;;;8.89;100.00;98848.00;5071739;28;20040;-59
2024/01/03 11:02:15;;;;;;;18.42;3.63;;;;;;;8.88;100.00;98848.94;5072038;28;20415;-59
2024/01/03 11:04:54;;;;;;;17.10;3.55;;;;;;;8.91;100.00;98855.72;5069801;28;20041;-60
2024/01/03 11:07:30;;;;;;;21.55;3.92;;;;;;;8.91;100.00;98861.78;5071719;28;20495;-58
2024/01/03 11:09:58;;;;;;;20.13;4.18;;;;;;;8.93;100.00;98843.28;5071277;28;20057;-59
2024/01/03 11:12:28;;;;;;;20.20;4.43;;;;;;;8.95;100.00;98851.84;5071705;28;20110;-58
2024/01/03 11:15:23;;;;;;;23.30;3.40;;;;;;;8.96;100.00;98850.91;5071254;28;20488;-59
2024/01/03 11:18:09;;;;;;;17.77;3.60;;;;;;;9.00;100.00;98857.50;5069124;28;20455;-58
2024/01/03 11:20:38;;;;;;;19.48;3.55;;;;;;;9.08;100.00;98856.81;5071057;28;20446;-59
2024/01/03 11:23:06;;;;;;;22.40;3.40;;;;;;;9.07;100.00;98849.94;5070046;28;20048;-59
2024/01/03 11:25:47;;;;;;;24.40;3.95;;;;;;;9.15;100.00;98852.69;5069723;28;20059;-59
2024/01/03 11:28:31;;;;;;;24.98;3.30;;;;;;;9.23;100.00;98855.44;5069619;28;20123;-59
2024/01/03 11:31:01;;;;;;;18.50;3.25;;;;;;;9.30;100.00;98847.84;5071280;28;20704;-59
2024/01/03 11:33:31;;;;;;;18.95;3.53;;;;;;;9.39;100.00;98849.59;5067523;28;20395;-58
2024/01/03 11:36:01;;;;;;;21.42;4.40;;;;;;;9.41;100.00;98849.47;5065797;28;20029;-58
2024/01/03 11:38:42;;;;;;;18.85;3.47;;;;;;;9.42;100.00;98858.97;5068758;28;20472;-59